Time,TemperatureF,DewpointF,PressureIn,WindDirection,WindDirectionDegrees,WindSpeedMPH,WindSpeedGustMPH,Humidity,HourlyPrecipIn,Conditions,Clouds,dailyrainin,SoftwareType,DateUTC
2012-11-16 00:00:00,41.9,40.6,29.91,SW,225,0.0,2.2,95,0.00,,,0.00,WUHU216HW,2012-11-16 08:00:00,
2012-11-16 00:05:00,41.9,40.6,29.91,SW,225,0.0,0.2,95,0.00,,,0.00,WUHU216HW,2012-11-16 08:05:00,
2012-11-16 00:10:00,42.1,40.8,29.91,WSW,248,0.0,0.2,95,0.00,,,0.00,WUHU216HW,2012-11-16 08:10:00,
2012-11-16 00:15:00,42.1,40.8,29.91,SW,225,0.7,2.0,95,0.00,,,0.00,WUHU216HW,2012-11-16 08:15:00,
2012-11-16 00:20:00,42.1,40.8,29.91,SW,225,0.4,2.0,95,0.00,,,0.00,WUHU216HW,2012-11-16 08:20:00,
2012-11-16 00:25:00,42.1,40.8,29.91,West,270,0.2,1.6,95,0.00,,,0.00,WUHU216HW,2012-11-16 08:25:00,
2012-11-16 00:30:00,42.1,40.8,29.91,WSW,248,0.9,1.6,95,0.00,,,0.00,WUHU216HW,2012-11-16 08:30:00,
2012-11-16 00:35:00,42.1,40.8,29.91,WSW,248,0.2,1.8,95,0.00,,,0.00,WUHU216HW,2012-11-16 08:35:00,
2012-11-16 00:40:00,42.1,40.8,29.91,WSW,248,0.9,2.5,95,0.00,,,0.00,WUHU216HW,2012-11-16 08:40:00,
2012-11-16 00:45:00,42.1,40.8,29.91,WSW,248,0.7,2.7,95,0.00,,,0.00,WUHU216HW,2012-11-16 08:45:00,
2012-11-16 00:50:00,42.1,40.8,29.91,WSW,248,0.9,2.7,95,0.00,,,0.00,WUHU216HW,2012-11-16 08:50:00,
2012-11-16 00:55:00,42.1,40.8,29.91,WSW,248,0.7,1.8,95,0.00,,,0.00,WUHU216HW,2012-11-16 08:55:00,
2012-11-16 01:00:00,42.1,40.8,29.90,WSW,248,2.0,2.9,95,0.00,,,0.00,WUHU216HW,2012-11-16 09:00:00,
2012-11-16 01:05:00,41.9,40.6,29.90,WSW,248,1.1,3.4,95,0.00,,,0.00,WUHU216HW,2012-11-16 09:05:00,
2012-11-16 01:10:00,42.1,40.8,29.90,SW,225,2.7,3.4,95,0.00,,,0.00,WUHU216HW,2012-11-16 09:10:00,
2012-11-16 01:15:00,42.1,40.8,29.90,SW,225,0.4,2.9,95,0.00,,,0.00,WUHU216HW,2012-11-16 09:15:00,
2012-11-16 01:20:00,42.1,40.8,29.91,SW,225,0.2,2.9,95,0.00,,,0.00,WUHU216HW,2012-11-16 09:20:00,
2012-11-16 01:25:00,42.1,40.8,29.91,SSE,158,0.4,1.1,95,0.00,,,0.00,WUHU216HW,2012-11-16 09:25:00,
2012-11-16 01:30:00,42.1,40.8,29.91,SSW,203,2.7,4.0,95,0.00,,,0.00,WUHU216HW,2012-11-16 09:30:00,
2012-11-16 01:35:00,42.1,40.8,29.90,SSW,203,1.8,4.0,95,0.00,,,0.00,WUHU216HW,2012-11-16 09:35:00,
2012-11-16 01:40:00,41.9,40.6,29.90,WSW,248,1.3,2.7,95,0.00,,,0.00,WUHU216HW,2012-11-16 09:40:00,
2012-11-16 01:45:00,41.9,40.6,29.90,SW,225,0.7,2.7,95,0.00,,,0.00,WUHU216HW,2012-11-16 09:45:00,
2012-11-16 01:50:00,41.9,40.6,29.90,SW,225,0.2,2.5,95,0.00,,,0.00,WUHU216HW,2012-11-16 09:50:00,
2012-11-16 01:55:00,41.9,40.6,29.90,SW,225,0.4,1.8,95,0.00,,,0.00,WUHU216HW,2012-11-16 09:55:00,
2012-11-16 02:00:00,41.9,40.6,29.90,West,270,0.4,1.6,95,0.00,,,0.00,WUHU216HW,2012-11-16 10:00:00,
2012-11-16 02:05:00,41.9,40.6,29.90,West,270,0.4,1.6,95,0.00,,,0.00,WUHU216HW,2012-11-16 10:05:00,
2012-11-16 02:10:00,41.9,40.6,29.90,WSW,248,1.3,1.8,95,0.00,,,0.00,WUHU216HW,2012-11-16 10:10:00,
2012-11-16 02:15:00,42.1,40.8,29.90,WSW,248,1.3,1.8,95,0.00,,,0.00,WUHU216HW,2012-11-16 10:15:00,
2012-11-16 02:20:00,42.1,40.8,29.90,WSW,248,1.1,1.3,95,0.00,,,0.00,WUHU216HW,2012-11-16 10:20:00,
2012-11-16 02:25:00,42.1,40.8,29.90,WSW,248,0.9,1.3,95,0.00,,,0.00,WUHU216HW,2012-11-16 10:25:00,
2012-11-16 02:30:00,42.1,40.8,29.89,SW,225,1.1,2.0,95,0.00,,,0.00,WUHU216HW,2012-11-16 10:30:00,
2012-11-16 02:35:00,42.1,40.8,29.90,WSW,248,1.8,2.5,95,0.00,,,0.00,WUHU216HW,2012-11-16 10:35:00,
2012-11-16 02:40:00,42.1,40.8,29.89,West,270,0.4,2.7,95,0.00,,,0.00,WUHU216HW,2012-11-16 10:40:00,
2012-11-16 02:45:00,42.1,40.8,29.89,SW,225,1.8,2.7,95,0.00,,,0.00,WUHU216HW,2012-11-16 10:45:00,
2012-11-16 02:50:00,42.1,40.8,29.89,SSW,203,1.8,3.6,95,0.00,,,0.00,WUHU216HW,2012-11-16 10:50:00,
2012-11-16 02:55:00,42.1,40.8,29.89,WSW,248,2.2,3.6,95,0.00,,,0.00,WUHU216HW,2012-11-16 10:55:00,
2012-11-16 03:00:00,41.9,40.6,29.89,WSW,248,1.1,4.0,95,0.00,,,0.00,WUHU216HW,2012-11-16 11:00:00,
2012-11-16 03:05:00,41.9,40.6,29.89,WSW,248,0.7,4.0,95,0.00,,,0.00,WUHU216HW,2012-11-16 11:05:00,
2012-11-16 03:10:00,41.9,40.6,29.89,WSW,248,1.8,2.0,95,0.00,,,0.00,WUHU216HW,2012-11-16 11:10:00,
2012-11-16 03:15:00,41.9,40.6,29.88,SSW,203,1.8,2.5,95,0.00,,,0.00,WUHU216HW,2012-11-16 11:15:00,
2012-11-16 03:20:00,41.9,40.6,29.88,West,270,0.0,2.5,95,0.00,,,0.00,WUHU216HW,2012-11-16 11:20:00,
2012-11-16 03:25:00,41.9,40.6,29.88,SW,225,1.6,4.0,95,0.00,,,0.00,WUHU216HW,2012-11-16 11:25:00,
2012-11-16 03:30:00,41.8,40.4,29.88,WSW,248,1.8,4.0,95,0.00,,,0.00,WUHU216HW,2012-11-16 11:30:00,
2012-11-16 03:35:00,41.8,40.4,29.88,West,270,0.7,4.0,95,0.00,,,0.00,WUHU216HW,2012-11-16 11:35:00,
2012-11-16 03:40:00,41.6,40.2,29.88,WSW,248,2.0,3.1,95,0.00,,,0.00,WUHU216HW,2012-11-16 11:40:00,
2012-11-16 03:45:00,41.6,40.2,29.87,WSW,248,0.4,2.2,95,0.00,,,0.00,WUHU216HW,2012-11-16 11:45:00,
2012-11-16 03:50:00,41.6,40.2,29.87,West,270,0.9,2.2,95,0.00,,,0.00,WUHU216HW,2012-11-16 11:50:00,
2012-11-16 03:55:00,41.6,40.2,29.87,West,270,0.2,1.3,95,0.00,,,0.00,WUHU216HW,2012-11-16 11:55:00,
2012-11-16 04:00:00,41.8,40.4,29.87,SW,225,1.1,2.2,95,0.00,,,0.00,WUHU216HW,2012-11-16 12:00:00,
2012-11-16 04:05:00,41.6,40.2,29.87,SSW,203,1.1,2.2,95,0.00,,,0.00,WUHU216HW,2012-11-16 12:05:00,
2012-11-16 04:10:00,41.6,40.2,29.87,West,270,0.7,3.1,95,0.00,,,0.00,WUHU216HW,2012-11-16 12:10:00,
2012-11-16 04:15:00,41.4,40.1,29.88,SW,225,0.7,3.1,95,0.00,,,0.00,WUHU216HW,2012-11-16 12:15:00,
2012-11-16 04:20:00,41.4,40.1,29.88,South,180,0.4,2.5,95,0.00,,,0.00,WUHU216HW,2012-11-16 12:20:00,
2012-11-16 04:25:00,41.4,40.1,29.87,WSW,248,0.9,1.6,95,0.00,,,0.00,WUHU216HW,2012-11-16 12:25:00,
2012-11-16 04:30:00,41.4,40.1,29.87,WSW,248,0.0,1.6,95,0.00,,,0.00,WUHU216HW,2012-11-16 12:30:00,
2012-11-16 04:35:00,41.4,40.1,29.88,SW,225,1.8,3.8,95,0.00,,,0.00,WUHU216HW,2012-11-16 12:35:00,
2012-11-16 04:40:00,41.4,40.1,29.88,SW,225,0.4,3.8,95,0.00,,,0.00,WUHU216HW,2012-11-16 12:40:00,
2012-11-16 04:45:00,41.4,40.1,29.87,SW,225,1.3,2.5,95,0.00,,,0.00,WUHU216HW,2012-11-16 12:45:00,
2012-11-16 04:50:00,41.4,40.1,29.88,SW,225,3.1,4.7,95,0.00,,,0.00,WUHU216HW,2012-11-16 12:50:00,
2012-11-16 04:55:00,41.2,39.9,29.88,WSW,248,1.1,4.7,95,0.00,,,0.00,WUHU216HW,2012-11-16 12:55:00,
2012-11-16 05:00:00,41.2,39.9,29.88,WSW,248,0.0,3.1,95,0.00,,,0.00,WUHU216HW,2012-11-16 13:00:00,
2012-11-16 05:05:00,41.2,39.9,29.87,WSW,248,1.1,2.2,95,0.00,,,0.00,WUHU216HW,2012-11-16 13:05:00,
2012-11-16 05:10:00,41.2,39.9,29.87,WSW,248,1.8,2.2,95,0.00,,,0.00,WUHU216HW,2012-11-16 13:10:00,
2012-11-16 05:15:00,41.0,39.7,29.87,SSW,203,0.7,2.5,95,0.00,,,0.00,WUHU216HW,2012-11-16 13:15:00,
2012-11-16 05:20:00,41.0,39.7,29.88,SSW,203,0.7,2.9,95,0.00,,,0.00,WUHU216HW,2012-11-16 13:20:00,
2012-11-16 05:25:00,41.0,39.7,29.88,West,270,1.8,2.9,95,0.00,,,0.00,WUHU216HW,2012-11-16 13:25:00,
2012-11-16 05:30:00,40.9,39.5,29.88,WSW,248,1.1,2.9,95,0.00,,,0.00,WUHU216HW,2012-11-16 13:30:00,
2012-11-16 05:35:00,40.9,39.5,29.88,SW,225,1.8,2.2,95,0.00,,,0.00,WUHU216HW,2012-11-16 13:35:00,
2012-11-16 05:40:00,40.9,39.5,29.87,SW,225,0.7,2.5,95,0.00,,,0.00,WUHU216HW,2012-11-16 13:40:00,
2012-11-16 05:45:00,40.7,39.3,29.87,SSW,203,3.8,3.8,95,0.00,,,0.00,WUHU216HW,2012-11-16 13:45:00,
2012-11-16 05:50:00,40.7,39.3,29.87,WSW,248,1.1,3.8,95,0.00,,,0.00,WUHU216HW,2012-11-16 13:50:00,
2012-11-16 05:55:00,40.7,39.3,29.87,West,270,0.7,3.8,95,0.00,,,0.00,WUHU216HW,2012-11-16 13:55:00,
2012-11-16 06:00:00,40.7,39.3,29.87,SW,225,0.4,2.0,95,0.00,,,0.00,WUHU216HW,2012-11-16 14:00:00,
2012-11-16 06:05:00,40.7,39.3,29.87,WSW,248,1.3,2.5,95,0.00,,,0.00,WUHU216HW,2012-11-16 14:05:00,
2012-11-16 06:10:00,40.7,39.3,29.87,SSW,203,0.7,2.5,95,0.00,,,0.00,WUHU216HW,2012-11-16 14:10:00,
2012-11-16 06:15:00,40.7,39.3,29.87,SW,225,1.3,2.7,95,0.00,,,0.00,WUHU216HW,2012-11-16 14:15:00,
2012-11-16 06:20:00,40.7,39.3,29.86,WSW,248,0.9,2.7,95,0.00,,,0.00,WUHU216HW,2012-11-16 14:20:00,
2012-11-16 06:25:00,40.7,39.3,29.87,West,270,1.8,2.9,95,0.00,,,0.00,WUHU216HW,2012-11-16 14:25:00,
2012-11-16 06:30:00,40.5,39.2,29.87,SW,225,2.0,2.9,95,0.00,,,0.00,WUHU216HW,2012-11-16 14:30:00,
2012-11-16 06:35:00,40.7,39.3,29.87,SW,225,4.5,4.5,95,0.00,,,0.00,WUHU216HW,2012-11-16 14:35:00,
2012-11-16 06:40:00,40.5,39.2,29.87,West,270,1.1,4.5,95,0.00,,,0.00,WUHU216HW,2012-11-16 14:40:00,
2012-11-16 06:45:00,40.5,39.2,29.87,NW,315,0.4,4.0,95,0.00,,,0.00,WUHU216HW,2012-11-16 14:45:00,
2012-11-16 06:50:00,40.7,39.3,29.87,South,180,2.9,2.9,95,0.00,,,0.00,WUHU216HW,2012-11-16 14:50:00,
2012-11-16 06:55:00,40.7,39.3,29.87,West,270,1.1,3.4,95,0.00,,,0.00,WUHU216HW,2012-11-16 14:55:00,
2012-11-16 07:00:00,40.5,39.2,29.87,WSW,248,1.6,3.4,95,0.00,,,0.00,WUHU216HW,2012-11-16 15:00:00,
2012-11-16 07:05:00,40.5,39.2,29.87,WSW,248,1.1,3.1,95,0.00,,,0.00,WUHU216HW,2012-11-16 15:05:00,
2012-11-16 07:10:00,40.5,39.2,29.88,WSW,248,2.9,3.1,95,0.00,,,0.00,WUHU216HW,2012-11-16 15:10:00,
2012-11-16 07:15:00,40.7,39.3,29.87,WSW,248,0.7,3.4,95,0.00,,,0.00,WUHU216HW,2012-11-16 15:15:00,
2012-11-16 07:20:00,40.5,39.2,29.87,WSW,248,1.1,3.4,95,0.00,,,0.00,WUHU216HW,2012-11-16 15:20:00,
2012-11-16 07:25:00,40.5,39.2,29.87,WSW,248,0.9,2.0,95,0.00,,,0.00,WUHU216HW,2012-11-16 15:25:00,
2012-11-16 07:30:00,40.5,39.2,29.88,SW,225,0.4,4.0,95,0.00,,,0.00,WUHU216HW,2012-11-16 15:30:00,
2012-11-16 07:35:00,40.5,39.2,29.87,WSW,248,1.1,4.0,95,0.00,,,0.00,WUHU216HW,2012-11-16 15:35:00,
2012-11-16 07:40:00,40.5,39.2,29.87,NW,315,0.9,1.8,95,0.00,,,0.00,WUHU216HW,2012-11-16 15:40:00,
2012-11-16 07:45:00,40.5,39.2,29.87,SW,225,1.8,2.7,95,0.00,,,0.00,WUHU216HW,2012-11-16 15:45:00,
2012-11-16 07:50:00,40.5,39.2,29.87,WSW,248,2.5,4.3,95,0.00,,,0.00,WUHU216HW,2012-11-16 15:50:00,
2012-11-16 07:55:00,40.3,39.0,29.87,SW,225,1.3,4.3,95,0.00,,,0.00,WUHU216HW,2012-11-16 15:55:00,
2012-11-16 08:00:00,40.3,38.7,29.87,SSW,203,1.1,2.5,94,0.00,,,0.00,WUHU216HW,2012-11-16 16:00:00,
2012-11-16 08:05:00,40.3,39.0,29.88,SW,225,0.2,2.5,95,0.00,,,0.00,WUHU216HW,2012-11-16 16:05:00,
2012-11-16 08:10:00,40.3,39.0,29.87,SW,225,0.4,2.5,95,0.00,,,0.00,WUHU216HW,2012-11-16 16:10:00,
2012-11-16 08:15:00,40.3,39.0,29.87,SW,225,0.0,2.2,95,0.00,,,0.00,WUHU216HW,2012-11-16 16:15:00,
2012-11-16 08:20:00,40.5,39.2,29.87,SW,225,0.0,1.3,95,0.00,,,0.00,WUHU216HW,2012-11-16 16:20:00,
2012-11-16 08:25:00,40.5,39.2,29.88,SW,225,0.0,0.4,95,0.00,,,0.00,WUHU216HW,2012-11-16 16:25:00,
2012-11-16 08:30:00,40.7,39.3,29.89,SSW,203,0.4,1.8,95,0.00,,,0.00,WUHU216HW,2012-11-16 16:30:00,
2012-11-16 08:35:00,40.7,39.3,29.89,SSW,203,0.9,2.0,95,0.00,,,0.00,WUHU216HW,2012-11-16 16:35:00,
2012-11-16 08:40:00,40.5,39.2,29.88,West,270,0.4,4.7,95,0.00,,,0.00,WUHU216HW,2012-11-16 16:40:00,
2012-11-16 08:45:00,40.5,39.2,29.88,ENE,68,0.0,4.7,95,0.00,,,0.00,WUHU216HW,2012-11-16 16:45:00,
2012-11-16 08:50:00,40.3,39.0,29.88,ENE,68,0.0,2.2,95,0.00,,,0.00,WUHU216HW,2012-11-16 16:50:00,
2012-11-16 08:55:00,40.5,39.2,29.88,WSW,248,0.0,0.4,95,0.00,,,0.00,WUHU216HW,2012-11-16 16:55:00,
2012-11-16 09:00:00,40.7,39.3,29.88,South,180,1.1,2.7,95,0.00,,,0.00,WUHU216HW,2012-11-16 17:00:00,
2012-11-16 09:05:00,40.7,39.3,29.88,WSW,248,0.4,2.7,95,0.00,,,0.00,WUHU216HW,2012-11-16 17:05:00,
2012-11-16 09:10:00,40.7,39.3,29.88,SW,225,0.7,2.5,95,0.00,,,0.00,WUHU216HW,2012-11-16 17:10:00,
2012-11-16 09:15:00,40.9,39.5,29.88,WSW,248,0.4,2.5,95,0.00,,,0.00,WUHU216HW,2012-11-16 17:15:00,
2012-11-16 09:20:00,40.9,39.5,29.88,SSW,203,2.2,4.5,95,0.00,,,0.00,WUHU216HW,2012-11-16 17:20:00,
2012-11-16 09:25:00,41.0,39.7,29.89,South,180,0.0,4.5,95,0.00,,,0.00,WUHU216HW,2012-11-16 17:25:00,
2012-11-16 09:30:00,41.0,39.7,29.88,WSW,248,1.8,3.4,95,0.00,,,0.00,WUHU216HW,2012-11-16 17:30:00,
2012-11-16 09:35:00,41.0,39.7,29.88,SW,225,3.1,3.1,95,0.00,,,0.00,WUHU216HW,2012-11-16 17:35:00,
2012-11-16 09:40:00,41.2,39.9,29.88,South,180,0.4,3.8,95,0.00,,,0.00,WUHU216HW,2012-11-16 17:40:00,
2012-11-16 09:45:00,41.2,39.9,29.88,SW,225,0.0,3.8,95,0.00,,,0.00,WUHU216HW,2012-11-16 17:45:00,
2012-11-16 09:50:00,41.4,40.1,29.88,WSW,248,2.0,2.9,95,0.00,,,0.00,WUHU216HW,2012-11-16 17:50:00,
2012-11-16 09:55:00,41.4,40.1,29.89,ESE,113,0.0,2.9,95,0.00,,,0.00,WUHU216HW,2012-11-16 17:55:00,
2012-11-16 10:00:00,41.6,40.2,29.89,West,270,1.8,2.2,95,0.00,,,0.00,WUHU216HW,2012-11-16 18:00:00,
2012-11-16 10:05:00,41.8,40.4,29.89,West,270,0.4,2.5,95,0.00,,,0.00,WUHU216HW,2012-11-16 18:05:00,
2012-11-16 10:10:00,41.8,40.4,29.89,NNE,23,0.7,2.5,95,0.00,,,0.00,WUHU216HW,2012-11-16 18:10:00,
2012-11-16 10:15:00,41.9,40.6,29.89,NE,45,0.0,1.6,95,0.00,,,0.00,WUHU216HW,2012-11-16 18:15:00,
2012-11-16 10:20:00,42.1,40.8,29.89,NE,45,0.0,0.9,95,0.00,,,0.00,WUHU216HW,2012-11-16 18:20:00,
2012-11-16 10:25:00,42.1,40.8,29.89,SW,225,1.3,2.5,95,0.00,,,0.00,WUHU216HW,2012-11-16 18:25:00,
2012-11-16 10:30:00,42.3,41.0,29.88,SSW,203,1.1,3.4,95,0.00,,,0.00,WUHU216HW,2012-11-16 18:30:00,
2012-11-16 10:35:00,42.5,41.1,29.89,West,270,1.6,3.4,95,0.00,,,0.00,WUHU216HW,2012-11-16 18:35:00,
2012-11-16 10:40:00,42.5,41.1,29.88,WSW,248,1.8,3.1,95,0.00,,,0.00,WUHU216HW,2012-11-16 18:40:00,
2012-11-16 10:45:00,42.7,41.3,29.88,SW,225,3.4,3.4,95,0.00,,,0.00,WUHU216HW,2012-11-16 18:45:00,
2012-11-16 10:50:00,42.8,41.5,29.89,WSW,248,0.4,3.4,95,0.00,,,0.00,WUHU216HW,2012-11-16 18:50:00,
2012-11-16 10:55:00,42.8,41.5,29.89,WSW,248,1.6,3.4,95,0.00,,,0.00,WUHU216HW,2012-11-16 18:55:00,
2012-11-16 11:00:00,42.8,41.5,29.88,WSW,248,1.8,2.5,95,0.00,,,0.00,WUHU216HW,2012-11-16 19:00:00,
2012-11-16 11:05:00,43.0,41.7,29.88,SW,225,1.1,2.5,95,0.00,,,0.00,WUHU216HW,2012-11-16 19:05:00,
2012-11-16 11:10:00,43.2,41.9,29.88,WNW,293,0.0,1.8,95,0.00,,,0.00,WUHU216HW,2012-11-16 19:10:00,
2012-11-16 11:15:00,43.2,41.9,29.88,WSW,248,2.5,4.3,95,0.00,,,0.00,WUHU216HW,2012-11-16 19:15:00,
2012-11-16 11:20:00,43.2,41.9,29.88,WSW,248,1.1,4.3,95,0.00,,,0.00,WUHU216HW,2012-11-16 19:20:00,
2012-11-16 11:25:00,43.4,42.0,29.87,SW,225,0.2,3.8,95,0.00,,,0.00,WUHU216HW,2012-11-16 19:25:00,
2012-11-16 11:30:00,43.4,42.0,29.87,SW,225,0.0,2.5,95,0.00,,,0.00,WUHU216HW,2012-11-16 19:30:00,
2012-11-16 11:35:00,43.6,41.9,29.87,SW,225,0.4,1.8,94,0.00,,,0.00,WUHU216HW,2012-11-16 19:35:00,
2012-11-16 11:40:00,43.6,42.2,29.87,WSW,248,0.7,1.8,95,0.00,,,0.00,WUHU216HW,2012-11-16 19:40:00,
2012-11-16 11:45:00,43.7,42.1,29.87,East,90,1.3,2.9,94,0.00,,,0.00,WUHU216HW,2012-11-16 19:45:00,
2012-11-16 11:50:00,43.9,42.6,29.87,ENE,68,0.0,2.9,95,0.00,,,0.00,WUHU216HW,2012-11-16 19:50:00,
2012-11-16 11:55:00,43.9,42.3,29.86,SW,225,0.2,1.3,94,0.00,,,0.00,WUHU216HW,2012-11-16 19:55:00,
2012-11-16 12:00:00,44.3,42.7,29.86,SE,135,0.0,1.1,94,0.00,,,0.00,WUHU216HW,2012-11-16 20:00:00,
2012-11-16 12:05:00,44.3,42.9,29.86,West,270,0.4,1.1,95,0.00,,,0.00,WUHU216HW,2012-11-16 20:05:00,
2012-11-16 12:10:00,44.3,42.7,29.86,South,180,0.0,1.1,94,0.00,,,0.00,WUHU216HW,2012-11-16 20:10:00,
2012-11-16 12:15:00,44.5,42.8,29.85,ESE,113,0.4,1.8,94,0.00,,,0.00,WUHU216HW,2012-11-16 20:15:00,
2012-11-16 12:20:00,44.5,42.8,29.86,WSW,248,0.4,1.8,94,0.00,,,0.00,WUHU216HW,2012-11-16 20:20:00,
2012-11-16 12:25:00,44.6,43.0,29.86,SW,225,0.7,1.8,94,0.00,,,0.00,WUHU216HW,2012-11-16 20:25:00,
2012-11-16 12:30:00,44.6,43.0,29.86,ESE,113,1.3,1.8,94,0.00,,,0.00,WUHU216HW,2012-11-16 20:30:00,
2012-11-16 12:35:00,44.6,43.0,29.85,SSE,158,0.2,1.3,94,0.00,,,0.00,WUHU216HW,2012-11-16 20:35:00,
2012-11-16 12:40:00,45.0,43.4,29.85,SSW,203,0.2,1.3,94,0.00,,,0.00,WUHU216HW,2012-11-16 20:40:00,
2012-11-16 12:45:00,45.0,43.4,29.85,SW,225,2.5,2.9,94,0.00,,,0.00,WUHU216HW,2012-11-16 20:45:00,
2012-11-16 12:50:00,45.2,43.6,29.85,SW,225,0.4,3.6,94,0.00,,,0.00,WUHU216HW,2012-11-16 20:50:00,
2012-11-16 12:55:00,45.2,43.6,29.84,WSW,248,0.0,3.6,94,0.00,,,0.00,WUHU216HW,2012-11-16 20:55:00,
2012-11-16 13:00:00,45.2,43.6,29.84,ESE,113,1.3,1.6,94,0.00,,,0.00,WUHU216HW,2012-11-16 21:00:00,
2012-11-16 13:05:00,45.4,43.7,29.84,ESE,113,1.1,1.8,94,0.00,,,0.00,WUHU216HW,2012-11-16 21:05:00,
2012-11-16 13:10:00,45.4,43.7,29.84,East,90,1.1,1.8,94,0.00,,,0.00,WUHU216HW,2012-11-16 21:10:00,
2012-11-16 13:15:00,45.4,43.7,29.83,ENE,68,0.7,1.8,94,0.00,,,0.00,WUHU216HW,2012-11-16 21:15:00,
2012-11-16 13:20:00,45.4,43.7,29.83,ESE,113,0.2,1.6,94,0.00,,,0.00,WUHU216HW,2012-11-16 21:20:00,
2012-11-16 13:25:00,45.2,43.6,29.83,East,90,0.4,2.0,94,0.00,,,0.00,WUHU216HW,2012-11-16 21:25:00,
2012-11-16 13:30:00,45.2,43.6,29.82,NE,45,1.6,2.0,94,0.00,,,0.00,WUHU216HW,2012-11-16 21:30:00,
2012-11-16 13:35:00,45.2,43.6,29.82,East,90,0.9,2.0,94,0.00,,,0.00,WUHU216HW,2012-11-16 21:35:00,
2012-11-16 13:40:00,45.2,43.6,29.81,ESE,113,0.9,2.0,94,0.00,,,0.00,WUHU216HW,2012-11-16 21:40:00,
2012-11-16 13:45:00,45.0,43.4,29.81,NE,45,0.2,2.7,94,0.00,,,0.00,WUHU216HW,2012-11-16 21:45:00,
2012-11-16 13:50:00,45.0,43.4,29.81,ENE,68,1.3,2.7,94,0.00,,,0.00,WUHU216HW,2012-11-16 21:50:00,
2012-11-16 13:55:00,44.8,43.2,29.81,ESE,113,0.4,1.8,94,0.00,,,0.00,WUHU216HW,2012-11-16 21:55:00,
2012-11-16 14:00:00,44.8,43.2,29.81,ENE,68,1.8,1.8,94,0.00,,,0.00,WUHU216HW,2012-11-16 22:00:00,
2012-11-16 14:05:00,44.8,43.2,29.81,NE,45,0.0,1.8,94,0.00,,,0.00,WUHU216HW,2012-11-16 22:05:00,
2012-11-16 14:10:00,44.8,43.2,29.81,West,270,0.9,1.8,94,0.01,,,0.01,WUHU216HW,2012-11-16 22:10:00,
2012-11-16 14:15:00,44.6,42.8,29.81,WSW,248,1.3,1.8,93,0.01,,,0.01,WUHU216HW,2012-11-16 22:15:00,
2012-11-16 14:20:00,44.8,43.2,29.81,WSW,248,2.9,2.9,94,0.01,,,0.01,WUHU216HW,2012-11-16 22:20:00,
2012-11-16 14:25:00,44.6,43.0,29.81,South,180,0.9,2.9,94,0.02,,,0.02,WUHU216HW,2012-11-16 22:25:00,
2012-11-16 14:30:00,44.6,43.0,29.81,SE,135,0.2,2.9,94,0.02,,,0.02,WUHU216HW,2012-11-16 22:30:00,
2012-11-16 14:35:00,44.6,43.0,29.80,East,90,0.4,1.3,94,0.03,,,0.03,WUHU216HW,2012-11-16 22:35:00,
2012-11-16 14:40:00,44.6,43.0,29.80,WSW,248,0.9,1.3,94,0.03,,,0.03,WUHU216HW,2012-11-16 22:40:00,
2012-11-16 14:45:00,44.6,43.0,29.80,West,270,1.3,1.3,94,0.03,,,0.03,WUHU216HW,2012-11-16 22:45:00,
2012-11-16 14:50:00,44.6,43.0,29.80,West,270,0.4,1.3,94,0.04,,,0.04,WUHU216HW,2012-11-16 22:50:00,
2012-11-16 14:55:00,44.6,43.0,29.80,NNW,338,0.9,0.9,94,0.04,,,0.04,WUHU216HW,2012-11-16 22:55:00,
2012-11-16 15:00:00,44.6,43.0,29.80,NNW,338,0.0,0.9,94,0.05,,,0.05,WUHU216HW,2012-11-16 23:00:00,
2012-11-16 15:05:00,44.6,43.0,29.80,ENE,68,0.2,1.6,94,0.04,,,0.05,WUHU216HW,2012-11-16 23:05:00,
2012-11-16 15:10:00,44.6,43.0,29.80,ENE,68,0.4,1.6,94,0.04,,,0.05,WUHU216HW,2012-11-16 23:10:00,
2012-11-16 15:15:00,44.6,43.0,29.80,ENE,68,0.0,1.1,94,0.05,,,0.06,WUHU216HW,2012-11-16 23:15:00,
2012-11-16 15:20:00,44.6,43.0,29.80,ESE,113,0.0,1.1,94,0.06,,,0.07,WUHU216HW,2012-11-16 23:20:00,
2012-11-16 15:25:00,44.6,43.0,29.80,ESE,113,0.7,0.9,94,0.06,,,0.08,WUHU216HW,2012-11-16 23:25:00,
2012-11-16 15:30:00,44.6,43.0,29.79,NNE,23,0.4,0.9,94,0.05,,,0.08,WUHU216HW,2012-11-16 23:30:00,
2012-11-16 15:35:00,44.5,42.8,29.79,NNE,23,0.4,0.9,94,0.06,,,0.09,WUHU216HW,2012-11-16 23:35:00,
2012-11-16 15:40:00,44.5,42.8,29.79,NNE,23,1.6,2.0,94,0.06,,,0.09,WUHU216HW,2012-11-16 23:40:00,
2012-11-16 15:45:00,44.5,42.8,29.79,NNE,23,0.0,2.0,94,0.06,,,0.10,WUHU216HW,2012-11-16 23:45:00,
2012-11-16 15:50:00,44.5,42.8,29.79,NNE,23,0.7,1.6,94,0.06,,,0.10,WUHU216HW,2012-11-16 23:50:00,
2012-11-16 15:55:00,44.5,42.8,29.78,ENE,68,1.1,1.6,94,0.07,,,0.11,WUHU216HW,2012-11-16 23:55:00,
2012-11-16 16:00:00,44.3,42.7,29.79,ENE,68,0.0,1.6,94,0.06,,,0.11,WUHU216HW,2012-11-17 00:00:00,
2012-11-16 16:05:00,44.3,42.7,29.79,NE,45,1.3,1.6,94,0.06,,,0.11,WUHU216HW,2012-11-17 00:05:00,
2012-11-16 16:10:00,44.3,42.7,29.78,NE,45,0.0,1.8,94,0.06,,,0.12,WUHU216HW,2012-11-17 00:10:00,
2012-11-16 16:15:00,44.3,42.7,29.78,West,270,1.3,1.8,94,0.06,,,0.12,WUHU216HW,2012-11-17 00:15:00,
2012-11-16 16:20:00,44.3,42.7,29.78,West,270,1.3,2.5,94,0.06,,,0.13,WUHU216HW,2012-11-17 00:20:00,
2012-11-16 16:25:00,44.5,42.8,29.77,West,270,0.2,2.5,94,0.05,,,0.13,WUHU216HW,2012-11-17 00:25:00,
2012-11-16 16:30:00,44.5,42.8,29.77,West,270,0.0,2.2,94,0.05,,,0.13,WUHU216HW,2012-11-17 00:30:00,
2012-11-16 16:35:00,44.3,42.7,29.77,West,270,0.0,0.2,94,0.05,,,0.14,WUHU216HW,2012-11-17 00:35:00,
2012-11-16 16:40:00,44.5,42.8,29.77,West,270,0.7,0.7,94,0.05,,,0.14,WUHU216HW,2012-11-17 00:40:00,
2012-11-16 16:45:00,44.5,42.8,29.77,WSW,248,0.9,2.0,94,0.05,,,0.15,WUHU216HW,2012-11-17 00:45:00,
2012-11-16 16:50:00,44.5,42.8,29.77,WSW,248,1.8,3.1,94,0.05,,,0.15,WUHU216HW,2012-11-17 00:50:00,
2012-11-16 16:55:00,44.5,42.8,29.77,West,270,0.9,3.1,94,0.04,,,0.15,WUHU216HW,2012-11-17 00:55:00,
2012-11-16 17:00:00,44.5,42.8,29.77,West,270,1.1,1.8,94,0.05,,,0.16,WUHU216HW,2012-11-17 01:00:00,
2012-11-16 17:05:00,44.5,42.8,29.77,West,270,0.0,1.8,94,0.04,,,0.16,WUHU216HW,2012-11-17 01:05:00,
2012-11-16 17:10:00,44.5,42.8,29.77,WSW,248,1.3,1.3,94,0.05,,,0.17,WUHU216HW,2012-11-17 01:10:00,
2012-11-16 17:15:00,44.5,42.8,29.77,West,270,2.5,2.5,94,0.05,,,0.17,WUHU216HW,2012-11-17 01:15:00,
2012-11-16 17:20:00,44.5,43.1,29.76,WSW,248,0.7,2.5,95,0.04,,,0.17,WUHU216HW,2012-11-17 01:20:00,
2012-11-16 17:25:00,44.5,43.1,29.76,West,270,1.6,2.5,95,0.04,,,0.17,WUHU216HW,2012-11-17 01:25:00,
2012-11-16 17:30:00,44.5,43.1,29.76,SSW,203,0.2,2.2,95,0.05,,,0.18,WUHU216HW,2012-11-17 01:30:00,
2012-11-16 17:35:00,44.3,42.9,29.76,SW,225,0.7,2.2,95,0.04,,,0.18,WUHU216HW,2012-11-17 01:35:00,
2012-11-16 17:40:00,44.3,42.9,29.76,West,270,1.3,2.2,95,0.03,,,0.18,WUHU216HW,2012-11-17 01:40:00,
2012-11-16 17:45:00,44.5,43.1,29.76,NNW,338,0.0,2.2,95,0.03,,,0.18,WUHU216HW,2012-11-17 01:45:00,
2012-11-16 17:50:00,44.3,42.9,29.76,North,0,0.2,1.1,95,0.04,,,0.19,WUHU216HW,2012-11-17 01:50:00,
2012-11-16 17:55:00,44.5,43.1,29.76,North,0,0.4,0.9,95,0.04,,,0.19,WUHU216HW,2012-11-17 01:55:00,
2012-11-16 18:00:00,44.5,43.1,29.75,North,0,0.7,0.7,95,0.03,,,0.19,WUHU216HW,2012-11-17 02:00:00,
2012-11-16 18:05:00,44.5,43.1,29.75,NNE,23,0.2,0.9,95,0.03,,,0.19,WUHU216HW,2012-11-17 02:05:00,
2012-11-16 18:10:00,44.5,43.1,29.75,SE,135,0.0,1.8,95,0.02,,,0.19,WUHU216HW,2012-11-17 02:10:00,
2012-11-16 18:15:00,44.5,43.1,29.74,NNE,23,1.3,1.8,95,0.02,,,0.19,WUHU216HW,2012-11-17 02:15:00,
2012-11-16 18:20:00,44.5,43.1,29.74,NE,45,1.8,2.9,95,0.02,,,0.19,WUHU216HW,2012-11-17 02:20:00,
2012-11-16 18:25:00,44.5,43.1,29.74,NE,45,1.8,2.9,95,0.02,,,0.19,WUHU216HW,2012-11-17 02:25:00,
2012-11-16 18:30:00,44.5,43.1,29.74,NNE,23,1.3,2.2,95,0.01,,,0.19,WUHU216HW,2012-11-17 02:30:00,
2012-11-16 18:35:00,44.5,43.1,29.74,East,90,0.9,2.2,95,0.01,,,0.19,WUHU216HW,2012-11-17 02:35:00,
2012-11-16 18:40:00,44.5,43.1,29.74,ENE,68,0.4,1.6,95,0.01,,,0.19,WUHU216HW,2012-11-17 02:40:00,
2012-11-16 18:45:00,44.5,43.1,29.74,ENE,68,0.0,0.9,95,0.01,,,0.19,WUHU216HW,2012-11-17 02:45:00,
2012-11-16 18:50:00,44.5,43.1,29.73,ENE,68,0.0,0.7,95,0.00,,,0.19,WUHU216HW,2012-11-17 02:50:00,
2012-11-16 18:55:00,44.5,43.1,29.74,ENE,68,0.0,0.2,95,0.00,,,0.19,WUHU216HW,2012-11-17 02:55:00,
2012-11-16 19:00:00,44.5,43.1,29.73,ENE,68,0.0,0.0,95,0.00,,,0.19,WUHU216HW,2012-11-17 03:00:00,
2012-11-16 19:05:00,44.6,43.3,29.73,ENE,68,0.0,0.0,95,0.00,,,0.19,WUHU216HW,2012-11-17 03:05:00,
2012-11-16 19:10:00,44.6,43.3,29.73,ENE,68,0.0,0.0,95,0.00,,,0.19,WUHU216HW,2012-11-17 03:10:00,
2012-11-16 19:15:00,44.6,43.3,29.73,ENE,68,0.0,0.0,95,0.00,,,0.19,WUHU216HW,2012-11-17 03:15:00,
2012-11-16 19:20:00,44.6,43.3,29.73,ENE,68,0.0,0.0,95,0.00,,,0.19,WUHU216HW,2012-11-17 03:20:00,
2012-11-16 19:25:00,44.6,43.3,29.73,ENE,68,0.0,0.0,95,0.00,,,0.19,WUHU216HW,2012-11-17 03:25:00,
2012-11-16 19:30:00,44.6,43.3,29.73,ENE,68,0.0,0.0,95,0.00,,,0.19,WUHU216HW,2012-11-17 03:30:00,
2012-11-16 19:35:00,44.6,43.3,29.72,ENE,68,0.0,0.0,95,0.00,,,0.19,WUHU216HW,2012-11-17 03:35:00,
2012-11-16 19:40:00,44.6,43.3,29.72,ENE,68,0.0,0.0,95,0.00,,,0.19,WUHU216HW,2012-11-17 03:40:00,
2012-11-16 19:45:00,44.6,43.3,29.72,ENE,68,0.0,0.0,95,0.00,,,0.19,WUHU216HW,2012-11-17 03:45:00,
2012-11-16 19:50:00,44.6,43.3,29.72,ENE,68,0.0,0.0,95,0.00,,,0.19,WUHU216HW,2012-11-17 03:50:00,
2012-11-16 19:55:00,44.6,43.3,29.72,ENE,68,0.0,0.0,95,0.00,,,0.19,WUHU216HW,2012-11-17 03:55:00,
2012-11-16 20:00:00,44.6,43.3,29.72,ENE,68,0.0,0.7,95,0.00,,,0.19,WUHU216HW,2012-11-17 04:00:00,
2012-11-16 20:05:00,44.6,43.3,29.71,ENE,68,0.0,0.7,95,0.00,,,0.19,WUHU216HW,2012-11-17 04:05:00,
2012-11-16 20:10:00,44.6,43.3,29.72,ENE,68,0.0,0.7,95,0.00,,,0.19,WUHU216HW,2012-11-17 04:10:00,
2012-11-16 20:15:00,44.6,43.3,29.72,ENE,68,0.0,0.0,95,0.00,,,0.19,WUHU216HW,2012-11-17 04:15:00,
2012-11-16 20:20:00,44.6,43.3,29.72,NNE,23,0.0,0.0,95,0.00,,,0.19,WUHU216HW,2012-11-17 04:20:00,
2012-11-16 20:25:00,44.6,43.3,29.71,NNE,23,0.0,0.0,95,0.00,,,0.19,WUHU216HW,2012-11-17 04:25:00,
2012-11-16 20:30:00,44.6,43.3,29.71,NNE,23,0.0,0.0,95,0.00,,,0.19,WUHU216HW,2012-11-17 04:30:00,
2012-11-16 20:35:00,44.6,43.3,29.71,NNE,23,0.0,0.0,95,0.00,,,0.19,WUHU216HW,2012-11-17 04:35:00,
2012-11-16 20:40:00,44.8,43.5,29.71,NNE,23,0.0,0.0,95,0.00,,,0.19,WUHU216HW,2012-11-17 04:40:00,
2012-11-16 20:45:00,44.8,43.5,29.71,NNE,23,0.0,0.0,95,0.01,,,0.20,WUHU216HW,2012-11-17 04:45:00,
2012-11-16 20:50:00,44.8,43.5,29.71,NNE,23,0.0,0.0,95,0.01,,,0.20,WUHU216HW,2012-11-17 04:50:00,
2012-11-16 20:55:00,44.8,43.5,29.71,NNE,23,0.0,0.0,95,0.01,,,0.20,WUHU216HW,2012-11-17 04:55:00,
2012-11-16 21:00:00,44.8,43.5,29.70,NNE,23,0.0,0.0,95,0.01,,,0.20,WUHU216HW,2012-11-17 05:00:00,
2012-11-16 21:05:00,44.8,43.5,29.71,NNE,23,0.0,0.0,95,0.01,,,0.20,WUHU216HW,2012-11-17 05:05:00,
2012-11-16 21:10:00,44.8,43.5,29.71,NNE,23,0.0,0.7,95,0.02,,,0.21,WUHU216HW,2012-11-17 05:10:00,
2012-11-16 21:15:00,44.8,43.5,29.71,NNE,23,0.0,1.1,95,0.02,,,0.21,WUHU216HW,2012-11-17 05:15:00,
2012-11-16 21:20:00,44.8,43.5,29.71,ENE,68,0.0,1.6,95,0.02,,,0.21,WUHU216HW,2012-11-17 05:20:00,
2012-11-16 21:25:00,44.8,43.5,29.70,ENE,68,0.0,1.6,95,0.02,,,0.21,WUHU216HW,2012-11-17 05:25:00,
2012-11-16 21:30:00,45.0,43.7,29.70,ENE,68,0.0,0.4,95,0.02,,,0.21,WUHU216HW,2012-11-17 05:30:00,
2012-11-16 21:35:00,45.0,43.7,29.70,WNW,293,1.1,1.1,95,0.03,,,0.22,WUHU216HW,2012-11-17 05:35:00,
2012-11-16 21:40:00,45.0,43.7,29.70,West,270,0.9,1.3,95,0.02,,,0.22,WUHU216HW,2012-11-17 05:40:00,
2012-11-16 21:45:00,45.0,43.7,29.69,WNW,293,0.0,1.6,95,0.02,,,0.22,WUHU216HW,2012-11-17 05:45:00,
2012-11-16 21:50:00,45.0,43.7,29.69,WNW,293,0.9,1.6,95,0.02,,,0.22,WUHU216HW,2012-11-17 05:50:00,
2012-11-16 21:55:00,45.0,43.7,29.69,WNW,293,0.4,0.9,95,0.02,,,0.22,WUHU216HW,2012-11-17 05:55:00,
2012-11-16 22:00:00,45.0,43.7,29.69,WNW,293,0.0,1.1,95,0.02,,,0.22,WUHU216HW,2012-11-17 06:00:00,
2012-11-16 22:05:00,45.0,43.7,29.69,West,270,2.2,2.2,95,0.01,,,0.22,WUHU216HW,2012-11-17 06:05:00,
2012-11-16 22:10:00,45.0,43.7,29.69,West,270,0.4,2.2,95,0.01,,,0.22,WUHU216HW,2012-11-17 06:10:00,
2012-11-16 22:15:00,45.0,43.7,29.69,West,270,0.0,2.0,95,0.01,,,0.22,WUHU216HW,2012-11-17 06:15:00,
2012-11-16 22:20:00,45.0,43.7,29.68,West,270,0.0,0.9,95,0.01,,,0.22,WUHU216HW,2012-11-17 06:20:00,
2012-11-16 22:25:00,45.0,43.7,29.69,West,270,0.0,0.0,95,0.01,,,0.22,WUHU216HW,2012-11-17 06:25:00,
2012-11-16 22:30:00,45.0,43.7,29.69,WSW,248,0.4,1.1,95,0.01,,,0.22,WUHU216HW,2012-11-17 06:30:00,
2012-11-16 22:35:00,45.0,43.7,29.69,WSW,248,0.0,1.1,95,0.00,,,0.22,WUHU216HW,2012-11-17 06:35:00,
2012-11-16 22:40:00,45.0,43.7,29.69,West,270,1.3,2.2,95,0.00,,,0.22,WUHU216HW,2012-11-17 06:40:00,
2012-11-16 22:45:00,45.0,43.7,29.69,WSW,248,3.4,3.4,95,0.00,,,0.22,WUHU216HW,2012-11-17 06:45:00,
2012-11-16 22:50:00,45.0,43.7,29.70,SSW,203,1.8,3.4,95,0.01,,,0.23,WUHU216HW,2012-11-17 06:50:00,
2012-11-16 22:55:00,45.0,43.7,29.70,SSW,203,0.0,3.4,95,0.01,,,0.23,WUHU216HW,2012-11-17 06:55:00,
2012-11-16 23:00:00,45.0,43.7,29.70,SSE,158,0.7,2.5,95,0.01,,,0.23,WUHU216HW,2012-11-17 07:00:00,
2012-11-16 23:05:00,45.0,43.7,29.69,NNE,23,0.0,2.5,95,0.02,,,0.24,WUHU216HW,2012-11-17 07:05:00,
2012-11-16 23:10:00,45.0,43.7,29.69,NNE,23,1.1,1.8,95,0.02,,,0.24,WUHU216HW,2012-11-17 07:10:00,
2012-11-16 23:15:00,45.0,43.7,29.69,NE,45,0.0,1.6,95,0.02,,,0.24,WUHU216HW,2012-11-17 07:15:00,
2012-11-16 23:20:00,45.0,43.7,29.68,NE,45,0.0,1.6,95,0.03,,,0.25,WUHU216HW,2012-11-17 07:20:00,
2012-11-16 23:25:00,45.2,43.8,29.68,NE,45,0.0,0.0,95,0.03,,,0.25,WUHU216HW,2012-11-17 07:25:00,
2012-11-16 23:30:00,45.2,43.8,29.67,NE,45,0.0,0.0,95,0.03,,,0.25,WUHU216HW,2012-11-17 07:30:00,
2012-11-16 23:35:00,45.2,43.8,29.67,WSW,248,2.2,2.2,95,0.03,,,0.25,WUHU216HW,2012-11-17 07:35:00,
2012-11-16 23:40:00,45.4,44.0,29.66,WSW,248,1.1,2.5,95,0.03,,,0.25,WUHU216HW,2012-11-17 07:40:00,
2012-11-16 23:45:00,45.4,44.0,29.66,WSW,248,0.0,2.5,95,0.03,,,0.25,WUHU216HW,2012-11-17 07:45:00,
2012-11-16 23:50:00,45.4,44.0,29.66,WSW,248,0.0,1.1,95,0.02,,,0.25,WUHU216HW,2012-11-17 07:50:00,
2012-11-16 23:55:00,45.4,44.0,29.66,WSW,248,1.6,1.6,95,0.02,,,0.25,WUHU216HW,2012-11-17 07:55:00,